Estación Meteorológica Peña el Pijo (Robertgarden) [ 04/25/18 02:54:13 CEST ]

Fecha Hora Presion(HPa) Temp (°C) Humedad % Rocio (°C) Viento ( m/s) Direccion Lluvia 1Hora(mm) Lluvia 24H(mm) LLuvia Total(mm)
2017-Nov-24 01:01:52 1012.500 3.8 54 -4.7         1468.01
2017-Nov-24 02:03:09 1012.200 2.9 58 -4.6         1468.01
2017-Nov-24 03:01:56 1012.100 2.1 61 -4.6         1468.01
2017-Nov-24 04:01:59 1012.300 1.9 63 -4.4         1468.01
2017-Nov-24 05:01:42 1011.900 1.1 66 -4.6         1468.01
2017-Nov-24 06:01:47 1011.600 1.3 68 -4.0         1468.01
2017-Nov-24 07:01:48 1011.800 2.9 67 -2.6         1468.01
2017-Nov-24 08:01:45 1012.100 3.9 65 -2.1         1468.01
2017-Nov-24 09:01:37 1012.300 5.8 64 -0.5         1468.01
2017-Nov-24 10:01:41 1012.700 9.8 56 1.4         1468.01
2017-Nov-24 11:01:44 1012.900 13.6 45 1.7         1468.01
2017-Nov-24 12:01:36 1012.300 18.9 31 1.4 1.6 WNW     1468.01
2017-Nov-24 13:01:43 1011.800 20.4 24 -1.1         1468.01
2017-Nov-24 14:01:30 1011.000 20.9 22 -1.7         1468.01
2017-Nov-24 15:01:37 1010.900 20.8 22 -1.8         1468.01
2017-Nov-24 16:01:42 1010.900 19.0 24 -2.3         1468.01
2017-Nov-24 17:01:36 1010.700 17.8 25 -2.7         1468.01
2017-Nov-24 18:01:40 1011.400 14.6 28 -3.8         1468.01
2017-Nov-24 19:01:17 1011.700 11.1 34 -4.3         1468.01
2017-Nov-24 20:01:34 1011.900 9.3 38 -4.4         1468.01
2017-Nov-24 21:01:32 1012.400 8.4 40 -4.4         1468.01
2017-Nov-24 22:01:43 1011.900 7.8 43 -4.1         1468.01
2017-Nov-24 23:01:51 1011.900 5.9 48 -4.3         1468.01

Temperatura Máxima:20°    Temperatura Mínima:
Presión Máxima:1012.900 Hpa    Presión Mínima:1010.700 Hpa


Volver